Aérodrome :
LOGIN :

S'inscrire | Disclaimer

   EN    FR    IT 

 










Légende :    VFR   VFR Marginal   IFR   IFR Intensif   IFR Très Intensif
Visi : 
Plafond : 
>= 8 km
>= 3000ft
5 à 8 km
1000 à 3000 ft
1500m à 5 km
500 à 1000 ft
800 à 1500m
200 à 500 ft
< 800m
< 200 ft
Symboles :   Orages  Brouillard  Fortes neiges  Fortes précipitations  Vent > 20 kt
SIGMETs :   Divers  Orages  Givrage  Turbulence  Onde Orograph.  Cendres Volcan.







- Altitude de l'aérodrome : 21 ft
- Code IATA : VST


ESOW - Stockholm Västerås

DERNIER METAR :
  • 191150Z 24015G28KT 200V280 CAVOK 19/05 Q1003

METARs EXPIRÉS :
  • 191120Z 24016G32KT 190V280 CAVOK 19/06 Q1003
  • 191050Z 24018G35KT 200V270 CAVOK 18/06 Q1003
  • 191020Z 25018G33KT 210V300 9999 FEW046 18/06 Q1003
  • 190950Z 24018G32KT 210V280 9999 FEW044 18/06 Q1002
  • 190920Z 24017G35KT 200V290 9999 FEW039CB 17/05 Q1002

TAF TAF ESOW
Valide du 19 à 12h jusqu'au 19 à 17h UTC


191130Z 1912/1917 24020G32KT CAVOK
Pas de NOTAMs connus pour ce terrain.



MET'MAP, la Météo Aéronautique d'un coup d'oeil ! - Copyright ORBIFLY Décembre 2007 - Disclaimer

ORBIFLY MET'MAP TEAM :

Programmation & Développement : Alexandra Zaïnal
Conception & Développement : Baudouin d'Aumeries
Co-Programmation & Développement : Marc-Olivier Méhu
Soutien technique & logistique : Manuel Goepfert

Contact : metmap@orbifly.com




SOURCES & CREDITS :

   NOAA